| time (UTC) | temp C | wind direction | speed KPH | gust KPH | rain 1hr cm | rain 24hr cm | rain mn cm | humidity % | barometer mb |
| 20260507090026 | 12 | 133 | 0.0 | 3.2 | 0.00 | 0.00 | 0.00 | 45 | 1012.7 |
| 20260507084523 | 13 | 133 | 0.0 | 3.2 | 0.00 | 0.00 | 0.00 | 43 | 1012.7 |
| 20260507083022 | 13 | 132 | 1.6 | 6.4 | 0.00 | 0.00 | 0.00 | 42 | 1012.9 |
| 20260507081521 | 13 | 153 | 1.6 | 4.8 | 0.00 | 0.00 | 0.00 | 43 | 1012.8 |
| 20260507080018 | 13 | 157 | 1.6 | 8.0 | 0.00 | 0.00 | 0.00 | 42 | 1012.9 |
| 20260507074515 | 14 | 267 | 0.0 | 4.8 | 0.00 | 0.00 | 0.00 | 41 | 1012.9 |
| 20260507073010 | 15 | 263 | 1.6 | 6.4 | 0.00 | 0.00 | 0.00 | 38 | 1012.7 |
| 20260507071524 | 16 | 251 | 4.8 | 14.5 | 0.00 | 0.00 | 0.00 | 38 | 1012.5 |
| 20260507070010 | 16 | 258 | 8.0 | 14.5 | 0.00 | 0.00 | 0.00 | 37 | 1012.5 |
| 20260507064504 | 16 | 213 | 6.4 | 12.9 | 0.00 | 0.00 | 0.00 | 37 | 1012.5 |
| 20260507063004 | 16 | 275 | 6.4 | 12.9 | 0.00 | 0.00 | 0.00 | 37 | 1012.5 |
| 20260507061503 | 16 | 232 | 6.4 | 14.5 | 0.00 | 0.00 | 0.00 | 36 | 1012.3 |
| 20260507060003 | 16 | 246 | 4.8 | 12.9 | 0.00 | 0.00 | 0.00 | 36 | 1012.3 |
| 20260507054504 | 16 | 228 | 8.0 | 14.5 | 0.00 | 0.00 | 0.00 | 36 | 1012.2 |
| 20260507053003 | 16 | 211 | 4.8 | 16.1 | 0.00 | 0.00 | 0.00 | 36 | 1012.3 |
| 20260507051501 | 16 | 225 | 6.4 | 16.1 | 0.00 | 0.00 | 0.00 | 35 | 1012.2 |
| 20260507050108 | 17 | 264 | 8.0 | 14.5 | 0.00 | 0.00 | 0.00 | 35 | 1012.1 |
| 20260507044600 | 17 | 267 | 8.0 | 19.3 | 0.00 | 0.00 | 0.00 | 35 | 1012.0 |
| 20260507043100 | 17 | 179 | 8.0 | 17.7 | 0.00 | 0.00 | 0.00 | 35 | 1011.8 |
| 20260507041559 | 17 | 267 | 12.9 | 19.3 | 0.00 | 0.00 | 0.00 | 34 | 1011.6 |
| 20260507040109 | 17 | 272 | 9.7 | 16.1 | 0.00 | 0.00 | 0.00 | 34 | 1011.4 |
| 20260507034558 | 17 | 258 | 14.5 | 22.5 | 0.00 | 0.00 | 0.00 | 33 | 1011.3 |
| 20260507033057 | 18 | 259 | 9.7 | 17.7 | 0.00 | 0.00 | 0.00 | 33 | 1011.1 |
| 20260507031557 | 18 | 260 | 12.9 | 24.1 | 0.00 | 0.00 | 0.00 | 32 | 1010.9 |
| 20260507030057 | 18 | 225 | 9.7 | 19.3 | 0.00 | 0.00 | 0.00 | 32 | 1010.7 |
| 20260507024603 | 18 | 267 | 9.7 | 20.9 | 0.00 | 0.00 | 0.00 | 31 | 1010.4 |
| 20260507023055 | 19 | 260 | 8.0 | 17.7 | 0.00 | 0.00 | 0.00 | 30 | 1010.4 |
| 20260507021554 | 20 | 256 | 9.7 | 16.1 | 0.00 | 0.00 | 0.00 | 29 | 1010.2 |
| 20260507020054 | 21 | 273 | 9.7 | 24.1 | 0.00 | 0.00 | 0.00 | 28 | 1010.0 |
| 20260507014602 | 22 | 161 | 1.6 | 17.7 | 0.00 | 0.00 | 0.00 | 26 | 1009.8 |
| 20260507013053 | 23 | 85 | 12.9 | 19.3 | 0.00 | 0.00 | 0.00 | 25 | 1009.6 |
| 20260507011552 | 23 | 290 | 0.0 | 17.7 | 0.00 | 0.00 | 0.00 | 23 | 1009.6 |
| 20260507004601 | 24 | 311 | 4.8 | 14.5 | 0.00 | 0.00 | 0.00 | 22 | 1009.7 |
| 20260507003051 | 25 | 317 | 0.0 | 8.0 | 0.00 | 0.00 | 0.00 | 21 | 1009.5 |
| 20260507001552 | 25 | 278 | 6.4 | 16.1 | 0.00 | 0.00 | 0.00 | 22 | 1009.6 |
| 20260507000047 | 24 | 348 | 4.8 | 14.5 | 0.00 | 0.00 | 0.00 | 22 | 1009.6 |
| 20260506234548 | 23 | 269 | 1.6 | 14.5 | 0.00 | 0.00 | 0.00 | 23 | 1009.6 |
| 20260506233049 | 25 | 26 | 0.0 | 14.5 | 0.00 | 0.00 | 0.00 | 20 | 1009.6 |
| 20260506231543 | 24 | 319 | 6.4 | 14.5 | 0.00 | 0.00 | 0.00 | 21 | 1009.7 |
| 20260506230041 | 25 | 297 | 4.8 | 19.3 | 0.00 | 0.00 | 0.00 | 22 | 1009.8 |
| 20260506224538 | 25 | 225 | 0.0 | 14.5 | 0.00 | 0.00 | 0.00 | 21 | 1009.9 |
| 20260506223035 | 25 | 268 | 4.8 | 17.7 | 0.00 | 0.00 | 0.00 | 23 | 1010.1 |
| 20260506221533 | 25 | 96 | 8.0 | 17.7 | 0.00 | 0.00 | 0.00 | 20 | 1010.4 |
| 20260506220038 | 25 | 319 | 6.4 | 20.9 | 0.00 | 0.00 | 0.00 | 23 | 1010.7 |
| 20260506214530 | 24 | 295 | 0.0 | 11.3 | 0.00 | 0.00 | 0.00 | 22 | 1011.0 |
| 20260506213031 | 24 | 309 | 4.8 | 16.1 | 0.00 | 0.00 | 0.00 | 22 | 1011.4 |
| 20260506211528 | 23 | 246 | 1.6 | 14.5 | 0.00 | 0.00 | 0.00 | 24 | 1011.5 |
| 20260506210024 | 23 | 303 | 4.8 | 16.1 | 0.00 | 0.00 | 0.00 | 22 | 1011.7 |
| 20260506204522 | 23 | 312 | 4.8 | 20.9 | 0.00 | 0.00 | 0.00 | 23 | 1012.0 |
| 20260506203021 | 23 | 282 | 11.3 | 32.2 | 0.00 | 0.00 | 0.00 | 24 | 1012.0 |
| 20260506201518 | 23 | 19 | 3.2 | 14.5 | 0.00 | 0.00 | 0.00 | 24 | 1012.3 |
| 20260506200020 | 23 | 42 | 3.2 | 14.5 | 0.00 | 0.00 | 0.00 | 24 | 1012.5 |
| 20260506194513 | 22 | 313 | 4.8 | 20.9 | 0.00 | 0.00 | 0.00 | 25 | 1012.6 |
| 20260506193012 | 22 | 315 | 8.0 | 19.3 | 0.00 | 0.00 | 0.00 | 26 | 1012.7 |
| 20260506191510 | 22 | 50 | 4.8 | 16.1 | 0.00 | 0.00 | 0.00 | 26 | 1012.7 |
| 20260506190012 | 21 | 299 | 4.8 | 16.1 | 0.00 | 0.00 | 0.00 | 26 | 1012.9 |
| 20260506184505 | 20 | 45 | 3.2 | 14.5 | 0.00 | 0.00 | 0.00 | 27 | 1013.0 |
| 20260506183006 | 20 | 295 | 3.2 | 14.5 | 0.00 | 0.00 | 0.00 | 27 | 1013.3 |
| 20260506181501 | 20 | 332 | 3.2 | 12.9 | 0.00 | 0.00 | 0.00 | 28 | 1013.3 |
| 20260506180116 | 20 | 5 | 3.2 | 17.7 | 0.00 | 0.00 | 0.00 | 28 | 1013.4 |
| 20260506174557 | 19 | 9 | 1.6 | 16.1 | 0.00 | 0.00 | 0.00 | 29 | 1013.5 |
| 20260506173129 | 19 | 271 | 6.4 | 14.5 | 0.00 | 0.00 | 0.00 | 30 | 1013.6 |
| 20260506171552 | 18 | 304 | 3.2 | 14.5 | 0.00 | 0.00 | 0.00 | 31 | 1013.6 |
| 20260506170050 | 17 | 317 | 4.8 | 9.7 | 0.00 | 0.00 | 0.00 | 33 | 1013.5 |
| 20260506164549 | 17 | 244 | 3.2 | 14.5 | 0.00 | 0.00 | 0.00 | 34 | 1013.5 |
| 20260506163052 | 16 | 309 | 6.4 | 14.5 | 0.00 | 0.00 | 0.00 | 35 | 1013.6 |
| 20260506161553 | 16 | 305 | 6.4 | 16.1 | 0.00 | 0.00 | 0.00 | 34 | 1013.3 |
| 20260506160042 | 16 | 297 | 4.8 | 9.7 | 0.00 | 0.00 | 0.00 | 35 | 1013.3 |
| 20260506154539 | 15 | 270 | 4.8 | 12.9 | 0.00 | 0.00 | 0.00 | 37 | 1013.1 |
| 20260506153037 | 15 | 321 | 1.6 | 4.8 | 0.00 | 0.00 | 0.00 | 38 | 1013.1 |
| 20260506151537 | 15 | 328 | 3.2 | 9.7 | 0.00 | 0.00 | 0.00 | 38 | 1013.2 |
| 20260506150033 | 15 | 49 | 1.6 | 9.7 | 0.00 | 0.00 | 0.00 | 40 | 1013.2 |
| 20260506144529 | 13 | 104 | 0.0 | 4.8 | 0.00 | 0.00 | 0.00 | 44 | 1013.1 |
| 20260506143029 | 13 | 110 | 1.6 | 4.8 | 0.00 | 0.00 | 0.00 | 45 | 1013.1 |
| 20260506141531 | 12 | 110 | 0.0 | 4.8 | 0.00 | 0.00 | 0.00 | 47 | 1013.1 |
| 20260506140020 | 11 | 202 | 1.6 | 4.8 | 0.00 | 0.00 | 0.00 | 49 | 1013.0 |
| 20260506134516 | 10 | 202 | 0.0 | 0.0 | 0.00 | 0.00 | 0.00 | 54 | 1013.0 |
| 20260506133017 | 7 | 202 | 0.0 | 1.6 | 0.00 | 0.00 | 0.00 | 63 | 1012.8 |
| 20260506131513 | 5 | 201 | 0.0 | 1.6 | 0.00 | 0.00 | 0.00 | 67 | 1012.6 |
| 20260506130016 | 5 | 201 | 0.0 | 0.0 | 0.00 | 0.00 | 0.00 | 66 | 1012.4 |
| 20260506124509 | 5 | 202 | 0.0 | 1.6 | 0.00 | 0.00 | 0.00 | 66 | 1012.4 |
| 20260506123008 | 5 | 209 | 0.0 | 3.2 | 0.00 | 0.00 | 0.00 | 65 | 1012.0 |
| 20260506121505 | 5 | 209 | 0.0 | 4.8 | 0.00 | 0.00 | 0.00 | 66 | 1011.7 |
| 20260506120002 | 5 | 209 | 1.6 | 4.8 | 0.00 | 0.00 | 0.00 | 65 | 1011.5 |
| 20260506114558 | 6 | 209 | 0.0 | 3.2 | 0.00 | 0.00 | 0.00 | 62 | 1011.6 |
| 20260506113059 | 6 | 209 | 1.6 | 4.8 | 0.00 | 0.00 | 0.00 | 59 | 1011.5 |
| 20260506111555 | 7 | 209 | 1.6 | 4.8 | 0.00 | 0.00 | 0.00 | 56 | 1011.3 |
| 20260506110052 | 8 | 209 | 0.0 | 4.8 | 0.00 | 0.00 | 0.00 | 56 | 1011.2 |
| 20260506104556 | 9 | 237 | 0.0 | 4.8 | 0.00 | 0.00 | 0.00 | 53 | 1011.1 |
| 20260506103050 | 9 | 251 | 3.2 | 9.7 | 0.00 | 0.00 | 0.00 | 54 | 1010.9 |
| 20260506101548 | 8 | 232 | 1.6 | 8.0 | 0.00 | 0.00 | 0.00 | 55 | 1010.9 |
| 20260506100048 | 9 | 247 | 1.6 | 6.4 | 0.00 | 0.00 | 0.00 | 54 | 1011.1 |
| 20260506094600 | 7 | 254 | 1.6 | 6.4 | 0.00 | 0.00 | 0.00 | 60 | 1011.0 |
| 20260506093046 | 7 | 259 | 0.0 | 3.2 | 0.00 | 0.00 | 0.00 | 58 | 1011.1 |
| 20260506091544 | 6 | 259 | 0.0 | 3.2 | 0.00 | 0.00 | 0.00 | 60 | 1010.9 |